Terminal Aerodrome Forecast
Issued by NWS

Home | Current Version | Previous Version | Graphics & Text | Print | Product List | Glossary On
Versions: 1 2 3 4 5 6 7 8 9 10 11 12
778
FTUS45 KGGW 131720
TAFSDY
TAF
KSDY 131720Z 1318/1418 17008KT P6SM OVC090
     FM131820 VRB06KT 3SM -FZRA OVC035
     FM132300 26008KT P6SM VCSH OVC060
     FM140600 30014KT P6SM BKN090
      AMD LTD TO CLD VIS AND WIND=

USA.gov is the U.S. government's official web portal to all federal, state and local government web resources and services.